Troy, Maine
Current Conditions -  °F | °C
As of 2:15 PM on Saturday 20 Dec 2014 (Local Time) from KWVL Reporting Station
Overcast Overcast  
Wind Chill: 17°   Ceiling: 1300
Heat Index: 23°   Visibility: 10mi
Dew Point: 14°   Wind: 5mph
Humidity: 68%   Direction: 60°ENE
Pressure: 30.28"   Gusts: NA
Location:  44.66°N, 69.24°W
Report Text: KWVL 201915Z 06004KT 10SM OVC013 M05/M10 A3028 RMK AO1
Loading
Personal Weather Stations






























Interactive Weather Map New forecast layout! Learn more

10-Day Weather Forecast

Advertisements
Track Severe Weather on mobile